Time;durP1;ratioP1;P1;durP2;ratioP2;P2;SDS_P1;SDS_P2;PMS_P1;PMS_P2;Temp;Humidity;BMP_temperature;BMP_pressure;BME280_temperature;BME280_humidity;BME280_pressure;Samples;Min_cycle;Max_cycle;Signal;HPM_P1;HPM_P2
2021/10/08 00:00:46;;;;;;;19.65;16.15;;;;;;;11.42;100.00;102341.75;5008055;28;20060;-82
2021/10/08 00:03:14;;;;;;;28.42;18.70;;;;;;;11.38;100.00;102343.63;5008251;28;20056;-88
2021/10/08 00:05:43;;;;;;;23.45;17.50;;;;;;;11.27;100.00;102345.81;5013679;28;20056;-84
2021/10/08 00:08:10;;;;;;;19.83;15.77;;;;;;;11.11;100.00;102336.69;5000032;28;20104;-86
2021/10/08 00:10:38;;;;;;;22.73;17.13;;;;;;;11.08;100.00;102342.94;5013665;28;20025;-83
2021/10/08 00:13:06;;;;;;;25.67;17.67;;;;;;;11.05;100.00;102343.03;5009281;28;20413;-85
2021/10/08 00:15:33;;;;;;;22.60;19.38;;;;;;;10.93;100.00;102332.88;5008208;28;20054;-85
2021/10/08 00:18:01;;;;;;;22.98;17.67;;;;;;;10.88;100.00;102334.81;4989647;28;20052;-82
2021/10/08 00:20:29;;;;;;;25.77;20.73;;;;;;;10.82;100.00;102343.78;5009818;28;20461;-82
2021/10/08 00:22:59;;;;;;;28.15;19.77;;;;;;;10.73;100.00;102336.19;5014991;28;20499;-82
2021/10/08 00:25:27;;;;;;;24.02;17.90;;;;;;;10.71;100.00;102334.50;5011335;28;20041;-82
2021/10/08 00:27:54;;;;;;;30.40;19.77;;;;;;;10.56;100.00;102341.97;5016307;28;20054;-82
2021/10/08 00:30:21;;;;;;;26.95;20.00;;;;;;;10.45;100.00;102341.47;5013668;28;20053;-84
2021/10/08 00:32:49;;;;;;;31.17;21.48;;;;;;;10.44;100.00;102346.75;5009775;28;20046;-83
2021/10/08 00:35:18;;;;;;;27.27;20.80;;;;;;;10.52;100.00;102345.63;5007291;28;20048;-85
2021/10/08 00:37:45;;;;;;;34.83;21.83;;;;;;;10.49;100.00;102336.94;5012987;28;20048;-83
2021/10/08 00:40:13;;;;;;;38.65;23.83;;;;;;;10.43;100.00;102338.00;5011501;28;20046;-81
2021/10/08 00:42:40;;;;;;;31.50;23.00;;;;;;;10.36;100.00;102336.50;5011333;28;20050;-87
2021/10/08 00:45:08;;;;;;;28.83;21.35;;;;;;;10.36;100.00;102337.34;5008014;28;20471;-84
2021/10/08 00:47:35;;;;;;;30.95;22.45;;;;;;;10.21;100.00;102335.13;5011655;28;20050;-83
2021/10/08 00:50:06;;;;;;;34.03;24.33;;;;;;;10.17;100.00;102330.00;5010601;28;20477;-83
2021/10/08 00:52:33;;;;;;;34.35;23.83;;;;;;;10.15;100.00;102338.81;5023495;28;20481;-82
2021/10/08 00:55:00;;;;;;;36.45;26.02;;;;;;;10.18;100.00;102336.97;5006646;28;20049;-84
2021/10/08 00:57:28;;;;;;;40.20;25.77;;;;;;;10.38;100.00;102338.16;4998615;28;20061;-80
2021/10/08 00:59:55;;;;;;;32.47;25.05;;;;;;;10.22;100.00;102334.25;5013243;28;20054;-88
2021/10/08 01:02:24;;;;;;;37.17;25.38;;;;;;;10.11;100.00;102331.91;5015383;28;20042;-84
2021/10/08 01:04:56;;;;;;;35.20;25.88;;;;;;;9.99;100.00;102337.53;5014536;28;20044;-85
2021/10/08 01:07:24;;;;;;;35.83;26.13;;;;;;;9.98;100.00;102333.19;5015373;28;20050;-84
2021/10/08 01:09:51;;;;;;;35.08;25.88;;;;;;;10.07;100.00;102329.41;5005896;28;20376;-85
2021/10/08 01:12:19;;;;;;;32.22;25.30;;;;;;;10.04;100.00;102330.38;4992873;28;20050;-87
2021/10/08 01:14:46;;;;;;;32.83;23.67;;;;;;;10.16;100.00;102334.41;5009432;28;20042;-84
2021/10/08 01:17:15;;;;;;;38.05;25.20;;;;;;;10.12;100.00;102338.03;4998509;28;20068;-86
2021/10/08 01:19:43;;;;;;;33.30;25.10;;;;;;;10.03;100.00;102335.69;5010345;28;20082;-82
2021/10/08 01:22:11;;;;;;;33.30;23.38;;;;;;;10.16;100.00;102331.78;5011994;28;20072;-84
2021/10/08 01:24:38;;;;;;;30.05;24.27;;;;;;;10.15;100.00;102336.19;5005582;28;20075;-85
2021/10/08 01:27:07;;;;;;;30.05;23.52;;;;;;;10.21;100.00;102332.50;5013100;28;20042;-84
2021/10/08 01:29:47;;;;;;;36.40;25.55;;;;;;;10.13;100.00;102337.13;5006511;28;20054;-81
2021/10/08 01:32:15;;;;;;;33.28;24.40;;;;;;;10.04;100.00;102334.75;5020194;28;20445;-84
2021/10/08 01:34:43;;;;;;;33.80;24.65;;;;;;;10.02;100.00;102340.09;5010620;28;20089;-83
2021/10/08 01:37:10;;;;;;;32.20;24.42;;;;;;;10.19;100.00;102336.09;5003219;28;20196;-85
2021/10/08 01:39:38;;;;;;;29.45;24.70;;;;;;;9.96;100.00;102339.41;5023268;28;20101;-87
2021/10/08 01:42:05;;;;;;;35.38;26.35;;;;;;;9.75;100.00;102344.38;5021745;28;20145;-86
2021/10/08 01:44:33;;;;;;;36.42;25.30;;;;;;;9.64;100.00;102344.66;5007839;28;20034;-82
2021/10/08 01:47:00;;;;;;;36.72;26.73;;;;;;;9.82;100.00;102338.03;5011029;28;20056;-82
2021/10/08 01:49:28;;;;;;;31.15;25.58;;;;;;;9.63;100.00;102350.81;5003233;28;20050;-89
2021/10/08 01:51:56;;;;;;;36.00;26.90;;;;;;;9.53;100.00;102348.47;5008413;28;20064;-84
2021/10/08 01:54:23;;;;;;;37.95;26.63;;;;;;;9.74;100.00;102341.78;5004958;28;20529;-81
2021/10/08 01:56:50;;;;;;;35.85;27.38;;;;;;;9.61;100.00;102342.13;5016328;28;20045;-84
2021/10/08 01:59:18;;;;;;;33.65;26.55;;;;;;;9.74;100.00;102334.75;5001556;28;20481;-81
2021/10/08 02:01:46;;;;;;;41.53;28.85;;;;;;;9.77;100.00;102337.31;4990852;28;20053;-84
2021/10/08 02:04:14;;;;;;;36.05;27.30;;;;;;;9.73;100.00;102342.69;5005541;28;20459;-85
2021/10/08 02:06:41;;;;;;;39.40;29.02;;;;;;;9.70;100.00;102340.13;5008218;28;20049;-83
2021/10/08 02:09:10;;;;;;;33.47;27.25;;;;;;;9.65;100.00;102340.28;4988554;28;20054;-85
2021/10/08 02:11:37;;;;;;;33.75;27.17;;;;;;;9.74;100.00;102344.41;5005805;28;20376;-83
2021/10/08 02:14:05;;;;;;;38.55;28.45;;;;;;;9.64;100.00;102346.44;5005842;28;20047;-85
2021/10/08 02:16:32;;;;;;;36.65;27.27;;;;;;;9.72;100.00;102338.31;5004245;28;20068;-86
2021/10/08 02:19:00;;;;;;;35.85;28.40;;;;;;;9.68;100.00;102341.94;4991457;28;20445;-81
2021/10/08 02:21:28;;;;;;;33.22;26.30;;;;;;;9.69;100.00;102347.16;5005997;28;20577;-84
2021/10/08 02:23:56;;;;;;;35.38;27.60;;;;;;;9.82;100.00;102347.69;5002712;28;20133;-83
2021/10/08 02:26:23;;;;;;;45.90;30.13;;;;;;;9.86;100.00;102349.31;4998915;28;20060;-88
2021/10/08 02:28:51;;;;;;;42.42;30.63;;;;;;;9.88;100.00;102351.00;5003891;28;20053;-83
2021/10/08 02:31:18;;;;;;;41.13;29.42;;;;;;;9.76;100.00;102351.34;4987368;28;20486;-85
2021/10/08 02:33:46;;;;;;;40.70;30.40;;;;;;;9.68;100.00;102349.81;5001248;28;20661;-85
2021/10/08 02:36:14;;;;;;;48.95;32.25;;;;;;;9.72;100.00;102354.97;5004934;28;20046;-80
2021/10/08 02:38:42;;;;;;;40.33;27.80;;;;;;;9.62;100.00;102351.72;5005739;28;20042;-84
2021/10/08 02:41:10;;;;;;;39.63;28.92;;;;;;;9.63;100.00;102353.44;5002557;28;20058;-84
2021/10/08 02:43:37;;;;;;;46.75;33.15;;;;;;;9.53;100.00;102353.75;5006898;28;20046;-84
2021/10/08 02:46:06;;;;;;;41.00;30.58;;;;;;;9.44;100.00;102361.88;5004646;28;20038;-83
2021/10/08 02:48:35;;;;;;;38.08;28.02;;;;;;;9.36;100.00;102355.03;5005132;28;20068;-82
2021/10/08 02:51:03;;;;;;;40.42;28.88;;;;;;;9.30;100.00;102363.09;4995616;28;20061;-84
2021/10/08 02:53:31;;;;;;;40.38;29.73;;;;;;;9.22;100.00;102369.44;5002072;28;20096;-85
2021/10/08 02:55:59;;;;;;;39.42;29.08;;;;;;;9.21;100.00;102367.72;5003572;28;20045;-88
2021/10/08 02:58:26;;;;;;;41.80;29.58;;;;;;;9.13;100.00;102367.91;5004806;28;20053;-83
2021/10/08 03:00:53;;;;;;;40.55;30.25;;;;;;;9.22;100.00;102372.94;4986652;28;20057;-88
2021/10/08 03:03:21;;;;;;;44.60;31.45;;;;;;;9.19;100.00;102380.06;5013795;28;20049;-85
2021/10/08 03:05:49;;;;;;;44.58;31.52;;;;;;;9.42;100.00;102372.44;5007390;28;20068;-80
2021/10/08 03:08:16;;;;;;;43.63;32.40;;;;;;;9.62;100.00;102375.38;5006964;28;20342;-86
2021/10/08 03:10:44;;;;;;;53.55;36.67;;;;;;;9.77;100.00;102373.25;5006424;28;20038;-78
2021/10/08 03:13:12;;;;;;;36.85;30.55;;;;;;;9.83;100.00;102373.09;5012116;28;20042;-86
2021/10/08 03:15:39;;;;;;;45.33;34.35;;;;;;;9.89;100.00;102370.28;5006304;28;20046;-81
2021/10/08 03:18:07;;;;;;;52.45;38.78;;;;;;;9.98;100.00;102372.66;5013190;28;20572;-85
2021/10/08 03:20:34;;;;;;;50.33;32.50;;;;;;;9.83;100.00;102378.34;5011034;28;20377;-86
2021/10/08 03:23:01;;;;;;;46.40;31.88;;;;;;;9.77;100.00;102378.50;5017634;28;20481;-85
2021/10/08 03:25:29;;;;;;;50.20;33.10;;;;;;;9.68;100.00;102378.75;5012790;28;20063;-85
2021/10/08 03:27:56;;;;;;;41.95;31.73;;;;;;;9.57;100.00;102376.44;4999887;28;20060;-79
2021/10/08 03:30:24;;;;;;;49.47;33.10;;;;;;;9.56;100.00;102377.34;5019104;28;20029;-84
2021/10/08 03:32:52;;;;;;;57.40;36.65;;;;;;;9.60;100.00;102371.94;5013367;28;20060;-87
2021/10/08 03:35:19;;;;;;;53.40;37.00;;;;;;;9.60;100.00;102377.22;5010495;28;20046;-83
2021/10/08 03:37:52;;;;;;;59.63;38.78;;;;;;;9.62;100.00;102379.78;5017448;28;20060;-86
2021/10/08 03:40:23;;;;;;;60.40;38.28;;;;;;;9.66;100.00;102384.06;5011232;28;20049;-81
2021/10/08 03:42:51;;;;;;;58.42;38.00;;;;;;;9.79;100.00;102389.84;5019110;28;20071;-85
2021/10/08 03:45:19;;;;;;;55.58;37.45;;;;;;;9.81;100.00;102391.53;5001285;28;20054;-83
2021/10/08 03:50:20;;;;;;;57.45;36.88;;;;;;;9.70;100.00;102384.84;5015756;28;20037;-82
2021/10/08 03:52:47;;;;;;;59.03;36.97;;;;;;;9.62;100.00;102393.78;5012043;28;20030;-83
2021/10/08 03:55:15;;;;;;;76.15;40.05;;;;;;;9.66;100.00;102393.72;5014164;28;20046;-79
2021/10/08 03:57:42;;;;;;;62.60;36.72;;;;;;;9.64;100.00;102396.41;5014200;28;20046;-84
2021/10/08 04:00:10;;;;;;;54.60;35.88;;;;;;;9.73;100.00;102398.78;5009467;28;20148;-84
2021/10/08 04:02:38;;;;;;;62.50;39.22;;;;;;;9.76;100.00;102405.72;5010495;28;20061;-85
2021/10/08 04:05:06;;;;;;;61.47;39.38;;;;;;;9.76;100.00;102403.09;5009146;28;20048;-86
2021/10/08 04:07:34;;;;;;;63.05;41.20;;;;;;;9.80;100.00;102404.72;5014546;28;20388;-81
2021/10/08 04:10:03;;;;;;;62.47;41.33;;;;;;;9.77;100.00;102410.06;5009391;28;20042;-84
2021/10/08 04:12:30;;;;;;;67.10;42.55;;;;;;;9.89;100.00;102413.22;5017130;28;20037;-83
2021/10/08 04:14:57;;;;;;;63.58;41.33;;;;;;;9.88;100.00;102411.50;5011004;28;20046;-86
2021/10/08 04:17:25;;;;;;;65.38;41.58;;;;;;;9.96;100.00;102406.03;5006619;28;20069;-85
2021/10/08 04:19:54;;;;;;;67.30;41.33;;;;;;;9.90;100.00;102409.69;5005189;28;20052;-81
2021/10/08 04:22:21;;;;;;;62.90;42.42;;;;;;;9.96;100.00;102413.94;5015173;28;20047;-85
2021/10/08 04:24:51;;;;;;;66.28;43.42;;;;;;;10.08;100.00;102410.94;5013276;28;20041;-87
2021/10/08 04:27:19;;;;;;;71.40;45.75;;;;;;;10.07;100.00;102411.00;4997676;28;20061;-83
2021/10/08 04:29:46;;;;;;;66.32;43.47;;;;;;;10.01;100.00;102412.03;5005652;28;20041;-84
2021/10/08 04:32:14;;;;;;;63.97;43.30;;;;;;;10.01;100.00;102414.66;5011268;28;20064;-84
2021/10/08 04:34:41;;;;;;;71.10;45.67;;;;;;;9.89;100.00;102413.22;5007887;28;20054;-84
2021/10/08 04:37:08;;;;;;;71.30;47.50;;;;;;;9.88;100.00;102413.28;5012257;28;20056;-84
2021/10/08 04:39:36;;;;;;;73.15;46.10;;;;;;;9.85;100.00;102413.34;4999677;28;20058;-82
2021/10/08 04:42:03;;;;;;;65.85;44.28;;;;;;;9.82;100.00;102408.19;5026388;28;20108;-84
2021/10/08 04:44:32;;;;;;;70.70;47.05;;;;;;;9.69;100.00;102412.91;5005801;28;20058;-82
2021/10/08 04:47:00;;;;;;;74.70;49.10;;;;;;;9.65;100.00;102411.28;5008670;28;20759;-85
2021/10/08 04:49:29;;;;;;;73.28;48.55;;;;;;;9.67;100.00;102417.34;5004826;28;20581;-85
2021/10/08 04:51:56;;;;;;;70.90;48.97;;;;;;;9.61;100.00;102417.50;5007277;28;20132;-84
2021/10/08 04:54:23;;;;;;;80.07;51.20;;;;;;;9.56;100.00;102422.88;5002375;28;20101;-85
2021/10/08 04:56:53;;;;;;;79.45;48.75;;;;;;;9.59;100.00;102417.56;4998644;28;20048;-87
2021/10/08 04:59:20;;;;;;;70.93;47.35;;;;;;;9.43;100.00;102429.38;4990992;28;20052;-81
2021/10/08 05:01:48;;;;;;;84.55;51.42;;;;;;;9.45;100.00;102424.91;5008276;28;20041;-78
2021/10/08 05:04:16;;;;;;;81.20;52.13;;;;;;;9.42;100.00;102430.28;5011112;28;20037;-80
2021/10/08 05:06:46;;;;;;;73.97;50.40;;;;;;;9.52;100.00;102430.91;5009268;28;20056;-84
2021/10/08 05:09:13;;;;;;;82.10;53.40;;;;;;;9.50;100.00;102432.69;5011764;28;20071;-83
2021/10/08 05:11:41;;;;;;;80.70;49.67;;;;;;;9.45;100.00;102429.31;5010516;28;20042;-83
2021/10/08 05:14:10;;;;;;;84.03;52.03;;;;;;;9.44;100.00;102435.47;4996582;28;20054;-87
2021/10/08 05:16:40;;;;;;;78.40;51.47;;;;;;;9.59;100.00;102427.19;5015117;28;20052;-83
2021/10/08 05:19:09;;;;;;;77.93;50.60;;;;;;;9.62;100.00;102432.38;5010811;28;20053;-85
2021/10/08 05:21:40;;;;;;;81.88;52.60;;;;;;;9.57;100.00;102429.88;5010393;28;20050;-87
2021/10/08 05:24:09;;;;;;;81.88;53.15;;;;;;;9.48;100.00;102434.50;4991227;28;20050;-84
2021/10/08 05:26:38;;;;;;;73.50;52.53;;;;;;;9.55;100.00;102430.81;5021184;28;20064;-85
2021/10/08 05:29:09;;;;;;;87.03;51.78;;;;;;;9.53;100.00;102430.84;5016230;28;20356;-89
2021/10/08 05:31:41;;;;;;;77.55;51.58;;;;;;;9.49;100.00;102430.97;5018639;28;20046;-78
2021/10/08 05:34:10;;;;;;;79.40;51.92;;;;;;;9.48;100.00;102429.25;5001611;28;20075;-84
2021/10/08 05:36:38;;;;;;;79.10;52.45;;;;;;;9.43;100.00;102434.63;5021661;28;20368;-85
2021/10/08 05:39:06;;;;;;;79.45;52.30;;;;;;;9.43;100.00;102434.63;5009281;28;20075;-83
2021/10/08 05:41:33;;;;;;;79.63;53.33;;;;;;;9.47;100.00;102443.31;5007268;28;20527;-83
2021/10/08 05:44:00;;;;;;;78.50;52.50;;;;;;;9.45;100.00;102439.81;5010266;28;20072;-84
2021/10/08 05:46:28;;;;;;;77.13;50.78;;;;;;;9.57;100.00;102440.38;5009347;28;20054;-84
2021/10/08 05:48:56;;;;;;;77.75;50.80;;;;;;;9.53;100.00;102446.63;5010201;28;20485;-81
2021/10/08 05:51:23;;;;;;;75.00;49.25;;;;;;;9.57;100.00;102448.28;5007399;28;20040;-84
2021/10/08 05:53:51;;;;;;;72.38;49.40;;;;;;;9.66;100.00;102448.94;5009395;28;20057;-83
2021/10/08 05:56:19;;;;;;;71.43;50.75;;;;;;;9.56;100.00;102457.06;5010007;28;20052;-83
2021/10/08 05:58:46;;;;;;;72.30;48.10;;;;;;;9.67;100.00;102456.78;5009965;28;20409;-79
2021/10/08 06:01:14;;;;;;;68.22;46.17;;;;;;;9.64;100.00;102456.88;5006470;28;20049;-84
2021/10/08 06:03:42;;;;;;;69.75;49.85;;;;;;;9.70;100.00;102455.84;4991371;28;20144;-83
2021/10/08 06:06:09;;;;;;;68.13;49.00;;;;;;;9.66;100.00;102454.19;5002041;28;20060;-81
2021/10/08 06:08:36;;;;;;;67.78;47.15;;;;;;;9.79;100.00;102455.63;5012903;28;20484;-83
2021/10/08 06:11:04;;;;;;;70.57;46.42;;;;;;;9.80;100.00;102452.94;5007676;28;20053;-82
2021/10/08 06:13:32;;;;;;;63.83;45.85;;;;;;;9.86;100.00;102459.78;4984432;28;20155;-83
2021/10/08 06:16:00;;;;;;;64.82;44.88;;;;;;;9.90;100.00;102459.66;4989272;28;20058;-84
2021/10/08 06:18:27;;;;;;;65.55;43.25;;;;;;;10.02;100.00;102466.38;5002629;28;20052;-85
2021/10/08 06:20:54;;;;;;;59.75;42.45;;;;;;;10.04;100.00;102463.69;5007082;28;20064;-83
2021/10/08 06:23:23;;;;;;;63.72;43.35;;;;;;;10.24;100.00;102469.31;5005903;28;20060;-82
2021/10/08 06:25:50;;;;;;;58.05;40.95;;;;;;;10.35;100.00;102471.63;4999903;28;20048;-83
2021/10/08 06:28:20;;;;;;;52.80;39.05;;;;;;;10.47;100.00;102478.34;5002543;28;20076;-82
2021/10/08 06:30:48;;;;;;;58.90;40.35;;;;;;;10.44;100.00;102481.03;5023043;28;20046;-83
2021/10/08 06:33:16;;;;;;;55.55;39.33;;;;;;;10.58;100.00;102479.75;5003694;28;20064;-84
2021/10/08 06:35:43;;;;;;;51.30;38.00;;;;;;;10.57;100.00;102487.69;4992937;28;20404;-83
2021/10/08 06:38:11;;;;;;;47.55;36.28;;;;;;;10.76;100.00;102490.63;5000799;28;20037;-85
2021/10/08 06:40:40;;;;;;;49.80;37.67;;;;;;;10.75;100.00;102483.63;5001557;28;20050;-81
2021/10/08 06:43:11;;;;;;;56.20;36.95;;;;;;;10.69;100.00;102487.34;5014847;28;20674;-84
2021/10/08 06:45:39;;;;;;;51.13;35.13;;;;;;;10.74;100.00;102492.47;4983759;28;20046;-85
2021/10/08 06:48:06;;;;;;;53.45;36.53;;;;;;;10.65;100.00;102496.22;5007104;28;20052;-82
2021/10/08 06:50:35;;;;;;;53.38;34.00;;;;;;;10.70;100.00;102507.50;5001141;28;20050;-80
2021/10/08 06:53:03;;;;;;;48.80;32.45;;;;;;;10.97;100.00;102500.53;5003946;28;20050;-85
2021/10/08 06:55:30;;;;;;;44.47;31.30;;;;;;;11.13;100.00;102501.78;4972127;28;20121;-83
2021/10/08 06:58:06;;;;;;;43.65;32.22;;;;;;;11.31;100.00;102499.50;5010053;28;20488;-83
2021/10/08 07:00:36;;;;;;;40.83;30.38;;;;;;;11.44;100.00;102495.53;4993983;28;20057;-84
2021/10/08 07:03:05;;;;;;;42.72;29.98;;;;;;;12.14;100.00;102498.44;5014018;28;20038;-83
2021/10/08 07:05:38;;;;;;;48.50;28.25;;;;;;;12.11;100.00;102505.59;5009272;28;20034;-84
2021/10/08 07:08:06;;;;;;;43.30;30.48;;;;;;;12.00;100.00;102505.13;4974777;28;20049;-83
2021/10/08 07:10:38;;;;;;;44.65;28.98;;;;;;;12.12;100.00;102508.19;5005254;28;20045;-80
2021/10/08 07:13:08;;;;;;;36.33;27.40;;;;;;;12.25;100.00;102516.56;5008694;28;20072;-84
2021/10/08 07:15:38;;;;;;;36.13;27.45;;;;;;;12.16;100.00;102515.09;5006520;28;20042;-81
2021/10/08 07:18:11;;;;;;;37.85;29.63;;;;;;;12.02;100.00;102522.63;5005707;28;20041;-84
2021/10/08 07:20:42;;;;;;;36.97;27.25;;;;;;;12.10;100.00;102525.84;4989755;28;20525;-80
2021/10/08 07:23:15;;;;;;;37.47;28.33;;;;;;;11.86;100.00;102526.72;5010227;28;20046;-81
2021/10/08 07:25:42;;;;;;;40.72;29.27;;;;;;;11.78;100.00;102520.78;5007788;28;20481;-82
2021/10/08 07:28:13;;;;;;;42.00;27.88;;;;;;;11.78;100.00;102526.06;5010649;28;20046;-83
2021/10/08 07:30:42;;;;;;;39.33;28.30;;;;;;;11.75;100.00;102523.53;4998594;28;20050;-82
2021/10/08 07:33:13;;;;;;;39.78;28.38;;;;;;;11.66;100.00;102533.50;5005334;28;20057;-83
2021/10/08 07:35:48;;;;;;;42.00;27.03;;;;;;;11.90;100.00;102523.91;5012407;28;20052;-82
2021/10/08 07:38:20;;;;;;;36.22;26.35;;;;;;;12.06;100.00;102528.66;5001642;28;20052;-85
2021/10/08 07:40:48;;;;;;;40.97;27.90;;;;;;;12.08;100.00;102522.41;4992346;28;20046;-83
2021/10/08 07:43:19;;;;;;;42.75;27.60;;;;;;;12.01;100.00;102523.53;5008985;28;21061;-80
2021/10/08 07:45:55;;;;;;;35.78;27.58;;;;;;;12.30;100.00;102525.16;4998186;28;20606;-84
2021/10/08 07:48:23;;;;;;;38.00;27.15;;;;;;;12.48;99.08;102525.41;5005258;28;20054;-84
2021/10/08 07:50:50;;;;;;;39.13;26.52;;;;;;;13.29;97.41;102525.84;5006312;28;20049;-82
2021/10/08 07:53:18;;;;;;;39.53;24.27;;;;;;;15.54;82.36;102522.88;5006617;28;20041;-83
2021/10/08 07:55:46;;;;;;;30.48;23.05;;;;;;;16.19;75.83;102522.19;4990156;28;20541;-81
2021/10/08 07:58:14;;;;;;;29.27;21.27;;;;;;;16.08;73.74;102537.84;5006870;28;20038;-84
2021/10/08 08:00:44;;;;;;;33.67;21.75;;;;;;;15.70;76.45;102532.66;4975037;28;20044;-85
2021/10/08 08:03:18;;;;;;;29.30;22.00;;;;;;;16.24;74.20;102534.38;5003229;28;20156;-83
2021/10/08 08:05:45;;;;;;;35.45;23.67;;;;;;;17.58;68.94;102529.63;5005104;28;20060;-83
2021/10/08 08:08:16;;;;;;;35.83;21.13;;;;;;;20.05;59.32;102524.72;5006041;28;20615;-84
2021/10/08 08:10:44;;;;;;;30.77;20.85;;;;;;;19.89;56.43;102531.09;5012089;28;20046;-84
2021/10/08 08:13:14;;;;;;;31.30;22.20;;;;;;;20.93;53.71;102533.63;5038180;28;20065;-83
2021/10/08 08:15:41;;;;;;;31.58;21.85;;;;;;;21.28;52.60;102532.88;5024647;28;20080;-86
2021/10/08 08:18:10;;;;;;;33.88;20.98;;;;;;;21.35;51.65;102537.72;5025102;28;20081;-85
2021/10/08 08:20:43;;;;;;;33.28;21.05;;;;;;;21.90;49.59;102541.59;5027554;28;20065;-84
2021/10/08 08:23:12;;;;;;;34.92;21.50;;;;;;;21.37;50.83;102540.28;5012814;28;20082;-82
2021/10/08 08:25:41;;;;;;;24.63;18.48;;;;;;;20.97;51.69;102544.00;5020201;28;20516;-85
2021/10/08 08:28:10;;;;;;;34.20;20.75;;;;;;;20.94;51.91;102540.72;5028603;28;20113;-85
2021/10/08 08:30:42;;;;;;;32.15;20.75;;;;;;;21.44;50.11;102545.06;5000696;28;20319;-85
2021/10/08 08:33:12;;;;;;;37.10;20.73;;;;;;;22.09;48.43;102540.16;4998539;28;20045;-85
2021/10/08 08:35:43;;;;;;;28.40;19.58;;;;;;;21.06;50.07;102547.84;4989581;28;20046;-82
2021/10/08 08:38:13;;;;;;;28.25;19.52;;;;;;;20.98;50.74;102544.88;5011473;28;20045;-81
2021/10/08 08:40:50;;;;;;;23.83;18.90;;;;;;;19.82;52.17;102547.66;5006203;28;20083;-79
2021/10/08 08:43:18;;;;;;;26.80;20.20;;;;;;;19.55;53.49;102548.53;5007800;28;20038;-85
2021/10/08 08:45:49;;;;;;;28.50;19.40;;;;;;;20.12;52.54;102542.88;5013318;28;20144;-84
2021/10/08 08:48:18;;;;;;;30.15;19.27;;;;;;;22.31;47.81;102539.38;4997749;28;20052;-84
2021/10/08 08:50:47;;;;;;;32.67;20.15;;;;;;;23.21;45.11;102541.03;5012356;28;20052;-82
2021/10/08 08:53:20;;;;;;;26.52;19.27;;;;;;;22.97;43.98;102538.53;5008225;28;20058;-85
2021/10/08 08:55:49;;;;;;;32.47;20.65;;;;;;;22.68;45.60;102530.09;5003017;28;20127;-84
2021/10/08 08:58:23;;;;;;;31.10;17.90;;;;;;;23.56;42.47;102537.25;5015578;28;20044;-87
2021/10/08 09:00:59;;;;;;;31.15;17.98;;;;;;;22.66;44.50;102536.59;4999508;28;20056;-92
2021/10/08 09:03:31;;;;;;;25.85;18.55;;;;;;;22.40;44.13;102536.81;4987106;28;20046;-83
2021/10/08 09:06:10;;;;;;;27.95;16.98;;;;;;;21.41;45.36;102541.75;4990694;28;20057;-87
2021/10/08 09:08:44;;;;;;;27.05;15.88;;;;;;;20.50;46.05;102530.53;4989689;28;20050;-86
2021/10/08 09:11:15;;;;;;;22.57;14.73;;;;;;;20.81;45.12;102534.56;5012857;28;20046;-84
2021/10/08 09:13:42;;;;;;;29.80;14.10;;;;;;;19.70;46.09;102520.81;5021241;28;20067;-85
2021/10/08 09:16:22;;;;;;;25.08;14.60;;;;;;;20.33;45.62;102519.16;4989910;28;20038;-84
2021/10/08 09:18:53;;;;;;;28.92;14.80;;;;;;;20.01;46.15;102532.09;5001706;28;20080;-86
2021/10/08 09:21:32;;;;;;;21.98;13.50;;;;;;;18.68;47.79;102530.94;4984516;28;20505;-87
2021/10/08 09:24:04;;;;;;;25.70;12.50;;;;;;;17.41;50.02;102535.06;4996517;28;20072;-85
2021/10/08 09:26:41;;;;;;;19.38;12.50;;;;;;;16.64;52.36;102528.66;5012861;28;20046;-84
2021/10/08 09:29:28;;;;;;;29.40;12.27;;;;;;;16.28;54.00;102525.31;5008724;28;20038;-84
2021/10/08 09:32:02;;;;;;;26.88;12.50;;;;;;;16.17;54.52;102531.19;4989757;28;20050;-84
2021/10/08 09:34:34;;;;;;;24.92;12.57;;;;;;;15.95;55.18;102537.63;4991890;28;20045;-82
2021/10/08 09:37:27;;;;;;;27.33;11.65;;;;;;;15.53;54.19;102532.63;5003306;28;20056;-82
2021/10/08 09:39:57;;;;;;;28.15;12.43;;;;;;;15.35;56.25;102536.16;5009956;28;20060;-83
2021/10/08 09:42:42;;;;;;;26.02;12.30;;;;;;;15.32;55.65;102529.25;5021286;28;20105;-82
2021/10/08 09:45:10;;;;;;;29.42;11.40;;;;;;;15.13;54.96;102529.28;5007496;28;20245;-82
2021/10/08 09:48:00;;;;;;;23.10;10.77;;;;;;;15.02;55.53;102528.03;5016751;28;20056;-80
2021/10/08 09:50:35;;;;;;;29.75;11.63;;;;;;;14.99;55.68;102531.69;5011570;28;20037;-84
2021/10/08 09:53:14;;;;;;;38.17;11.20;;;;;;;15.02;55.56;102523.59;5000638;28;20110;-84
2021/10/08 09:55:45;;;;;;;26.58;10.50;;;;;;;15.29;55.43;102523.22;5012556;28;20105;-82
2021/10/08 09:58:15;;;;;;;26.25;10.20;;;;;;;15.22;55.05;102525.31;4985216;28;20136;-83
2021/10/08 10:00:49;;;;;;;27.90;10.52;;;;;;;15.16;54.64;102522.94;5001237;28;20136;-83
2021/10/08 10:03:19;;;;;;;20.40;9.23;;;;;;;15.08;54.19;102514.47;5019718;28;20145;-84
2021/10/08 10:05:49;;;;;;;28.40;10.30;;;;;;;15.03;54.59;102514.69;5021506;28;20135;-83
2021/10/08 10:08:20;;;;;;;22.98;9.63;;;;;;;15.36;54.36;102519.34;5001601;28;20042;-82
2021/10/08 10:10:50;;;;;;;21.77;9.07;;;;;;;15.46;53.04;102509.97;5011479;28;20064;-84
2021/10/08 10:13:26;;;;;;;22.48;8.43;;;;;;;15.48;52.79;102507.25;5016880;28;20053;-84
2021/10/08 10:15:59;;;;;;;26.80;9.23;;;;;;;15.44;52.16;102509.19;5013716;28;20050;-85
2021/10/08 10:18:30;;;;;;;24.90;9.70;;;;;;;15.30;51.89;102507.22;5017175;28;20053;-83
2021/10/08 10:21:04;;;;;;;29.05;8.90;;;;;;;15.33;51.70;102507.06;5016461;28;20113;-84
2021/10/08 10:23:39;;;;;;;26.73;9.38;;;;;;;15.29;52.11;102505.50;4978550;28;20870;-83
2021/10/08 10:26:07;;;;;;;19.52;8.77;;;;;;;15.15;52.18;102495.56;5015016;28;20160;-83
2021/10/08 10:28:38;;;;;;;28.30;9.55;;;;;;;15.26;52.90;102505.63;5025050;28;20457;-83
2021/10/08 10:31:12;;;;;;;30.00;9.65;;;;;;;15.23;53.56;102500.50;5020084;28;20408;-86
2021/10/08 10:33:45;;;;;;;25.85;9.10;;;;;;;15.35;53.88;102499.88;5015386;28;20041;-84
2021/10/08 10:36:23;;;;;;;25.42;10.00;;;;;;;15.45;53.03;102502.97;4999632;28;20046;-84
2021/10/08 10:38:52;;;;;;;27.60;9.75;;;;;;;15.31;53.62;102503.63;5021447;28;20056;-85
2021/10/08 10:41:22;;;;;;;26.00;9.13;;;;;;;15.22;54.03;102509.41;5015808;28;20265;-82
2021/10/08 10:43:55;;;;;;;18.98;8.95;;;;;;;15.24;53.93;102509.31;4995901;28;20045;-83
2021/10/08 10:46:50;;;;;;;20.50;8.98;;;;;;;15.14;53.64;102499.16;5016635;28;20113;-82
2021/10/08 10:51:59;;;;;;;23.75;9.35;;;;;;;15.09;55.12;102502.97;5011533;28;20060;-80
2021/10/08 10:54:39;;;;;;;32.38;9.88;;;;;;;15.17;54.89;102501.66;5010155;28;20046;-82
2021/10/08 10:57:18;;;;;;;24.25;9.63;;;;;;;15.09;54.90;102497.66;5032928;28;20059;-83
2021/10/08 10:59:50;;;;;;;18.40;9.98;;;;;;;15.09;55.59;102495.00;5023128;28;20046;-82
2021/10/08 11:02:23;;;;;;;26.88;9.95;;;;;;;15.22;55.51;102492.59;5011993;28;20053;-82
2021/10/08 11:05:20;;;;;;;30.40;10.50;;;;;;;15.08;56.06;102495.91;4994189;28;20076;-82
2021/10/08 11:08:19;;;;;;;28.65;10.55;;;;;;;14.96;56.04;102493.88;5016405;28;20056;-82
2021/10/08 11:11:13;;;;;;;26.98;10.07;;;;;;;15.14;56.32;102495.63;5011898;28;20053;-85
2021/10/08 11:13:46;;;;;;;23.08;9.77;;;;;;;15.28;55.67;102497.63;5012119;28;20107;-83
2021/10/08 11:16:28;;;;;;;19.33;10.13;;;;;;;15.22;55.81;102490.81;5001666;28;20045;-79
2021/10/08 11:18:59;;;;;;;19.55;9.95;;;;;;;15.14;56.11;102493.84;5012586;28;20053;-88
2021/10/08 11:21:34;;;;;;;24.30;10.20;;;;;;;15.07;56.38;102487.09;5018860;28;20050;-81
2021/10/08 11:24:21;;;;;;;20.33;9.75;;;;;;;15.08;56.06;102490.59;5015217;28;20054;-83